Tisbury, United Kingdom
Current Conditions -  °F | °C
As of 11:50 PM on Wednesday 26 Nov 2014 (Local Time) from EGDM Reporting Station
Haze Haze  
Wind Chill:   Ceiling: 100
Heat Index:   Visibility: 1mi
Dew Point:   Wind: 5mph
Humidity: 100%   Direction: 310°NW
Pressure: 29.71"   Gusts: NA
Location:  51.06°N, 2.08°W
Report Text: EGDM 262350Z AUTO 31004KT 1600 BR BKN001/// BKN019/// 07/07 Q1006 RERA
Loading
Personal Weather Stations






























Interactive Weather Map New forecast layout! Learn more

10-Day Weather Forecast

Advertisements
Track Severe Weather on mobile